Impacts METAR Board
IDs:

KCNU - Chanute/Johnson Arpt, KS, US

Updated at: 2000 UTC 02 Oct 2022
Potential Impact None Slight Moderate High
Time 02/08Z 02/09Z 02/10Z 02/11Z 02/12Z 02/13Z 02/14Z 02/15Z 02/16Z 02/17Z 02/18Z 02/19Z 02/20Z
Temp49 45 54 50 47 48 61 67 73 78 81 82 84
Dewpt40 38 40 40 40 42 41 42 41 41 39 35 35
Altim30.21 30.21 30.22 30.23 30.25 30.26 30.27 30.28 30.28 30.29 30.27 30.25 30.22
VIS10 10 10 10 10 10 10 10 10 10 10 10 10
CIG-- -- -- -- -- -- -- -- -- -- -- -- --
CoverCLRCLRCLRCLRCLRCLRCLRCLRCLRCLRCLRCLRCLR
FltCatVFRVFRVFRVFRVFRVFRVFRVFRVFRVFRVFRVFRVFR
WX--------------------------
WDir040909000100012013001400
WSpd0 3 4 3 0 0 9 6 8 7 4 7 6
WGst-- -- -- -- -- -- -- -- -- -- -- -- --
Raw hourly METARs
KCNU 020752Z AUTO 00000KT 10SM CLR 09/04 A3021 RMK AO2 SLP222 T00940044
KCNU 020852Z AUTO 04003KT 10SM CLR 07/03 A3021 RMK AO2 SLP225 T00720033 51010
KCNU 020952Z AUTO 09004KT 10SM CLR 12/04 A3022 RMK AO2 SLP225 T01220044
KCNU 021052Z AUTO 09003KT 10SM CLR 10/04 A3023 RMK AO2 SLP231 T01000044
KCNU 021152Z AUTO 00000KT 10SM CLR 08/04 A3025 RMK AO2 SLP237 T00830044 10144 20072 53010
KCNU 021252Z AUTO 00000KT 10SM CLR 09/06 A3026 RMK AO2 SLP242 T00890056
KCNU 021352Z AUTO 10009KT 10SM CLR 16/05 A3027 RMK AO2 SLP246 T01610050
KCNU 021452Z AUTO VRB06KT 10SM CLR 19/06 A3028 RMK AO2 SLP247 T01940056 51012
KCNU 021552Z AUTO 12008KT 10SM CLR 23/05 A3028 RMK AO2 SLP248 T02280050
KCNU 021652Z AUTO 13007KT 10SM CLR 26/05 A3029 RMK AO2 SLP248 T02560050
KCNU 021752Z AUTO VRB04KT 10SM CLR 27/04 A3027 RMK AO2 SLP242 T02720039 10272 20072 58004
KCNU 021852Z AUTO 14007KT 10SM CLR 28/02 A3025 RMK AO2 SLP235 T02780017
KCNU 021952Z AUTO VRB06KT 10SM CLR 29/02 A3022 RMK AO2 SLP227 T02890017



Page loaded:  20:01 UTC  |   01:01 PM Pacific  |   02:01 PM Mountain  |   03:01 PM Central  |   04:01 PM Eastern

 

ADVISORIES

FORECASTS

FORECASTS

OBSERVATIONS

USER TOOLS

ABOUT US